sensor_id;sensor_type;location;lat;lon;timestamp;temperature;humidity
69009;SHT31;56065;52.472;13.380;2022-11-14T00:01:55;7.87;86.16
69009;SHT31;56065;52.472;13.380;2022-11-14T00:04:21;7.87;86.13
69009;SHT31;56065;52.472;13.380;2022-11-14T00:06:46;7.82;86.22
69009;SHT31;56065;52.472;13.380;2022-11-14T00:09:11;7.80;86.30
69009;SHT31;56065;52.472;13.380;2022-11-14T00:11:37;7.81;86.10
69009;SHT31;56065;52.472;13.380;2022-11-14T00:14:02;7.82;86.15
69009;SHT31;56065;52.472;13.380;2022-11-14T00:16:27;7.80;86.28
69009;SHT31;56065;52.472;13.380;2022-11-14T00:18:53;7.74;86.31
69009;SHT31;56065;52.472;13.380;2022-11-14T00:21:18;7.77;86.32
69009;SHT31;56065;52.472;13.380;2022-11-14T00:23:43;7.77;86.60
69009;SHT31;56065;52.472;13.380;2022-11-14T00:26:09;7.78;86.41
69009;SHT31;56065;52.472;13.380;2022-11-14T00:28:34;7.81;86.51
69009;SHT31;56065;52.472;13.380;2022-11-14T00:31:00;7.87;86.34
69009;SHT31;56065;52.472;13.380;2022-11-14T00:33:26;7.84;86.33
69009;SHT31;56065;52.472;13.380;2022-11-14T00:35:53;7.90;86.19
69009;SHT31;56065;52.472;13.380;2022-11-14T00:38:18;7.94;86.28
69009;SHT31;56065;52.472;13.380;2022-11-14T00:40:44;7.97;86.22
69009;SHT31;56065;52.472;13.380;2022-11-14T00:43:09;7.95;86.22
69009;SHT31;56065;52.472;13.380;2022-11-14T00:45:34;7.94;86.22
69009;SHT31;56065;52.472;13.380;2022-11-14T00:48:00;7.94;86.14
69009;SHT31;56065;52.472;13.380;2022-11-14T00:50:25;7.91;86.10
69009;SHT31;56065;52.472;13.380;2022-11-14T00:52:50;7.88;86.14
69009;SHT31;56065;52.472;13.380;2022-11-14T00:55:16;7.85;86.29
69009;SHT31;56065;52.472;13.380;2022-11-14T00:57:41;7.82;86.27
69009;SHT31;56065;52.472;13.380;2022-11-14T01:00:07;7.77;86.20
69009;SHT31;56065;52.472;13.380;2022-11-14T01:02:33;7.70;86.53
69009;SHT31;56065;52.472;13.380;2022-11-14T01:04:58;7.67;86.63
69009;SHT31;56065;52.472;13.380;2022-11-14T01:07:24;7.60;86.78
69009;SHT31;56065;52.472;13.380;2022-11-14T01:09:49;7.63;86.63
69009;SHT31;56065;52.472;13.380;2022-11-14T01:12:15;7.64;86.70
69009;SHT31;56065;52.472;13.380;2022-11-14T01:14:40;7.57;86.76
69009;SHT31;56065;52.472;13.380;2022-11-14T01:17:06;7.53;86.97
69009;SHT31;56065;52.472;13.380;2022-11-14T01:19:31;7.53;86.98
69009;SHT31;56065;52.472;13.380;2022-11-14T01:21:56;7.50;87.00
69009;SHT31;56065;52.472;13.380;2022-11-14T01:24:22;7.44;87.20
69009;SHT31;56065;52.472;13.380;2022-11-14T01:26:47;7.44;87.38
69009;SHT31;56065;52.472;13.380;2022-11-14T01:29:12;7.44;87.21
69009;SHT31;56065;52.472;13.380;2022-11-14T01:31:38;7.43;87.27
69009;SHT31;56065;52.472;13.380;2022-11-14T01:34:03;7.42;87.37
69009;SHT31;56065;52.472;13.380;2022-11-14T01:36:28;7.36;87.41
69009;SHT31;56065;52.472;13.380;2022-11-14T01:38:54;7.32;87.60
69009;SHT31;56065;52.472;13.380;2022-11-14T01:41:20;7.34;87.28
69009;SHT31;56065;52.472;13.380;2022-11-14T01:43:46;7.34;87.36
69009;SHT31;56065;52.472;13.380;2022-11-14T01:46:23;7.26;87.59
69009;SHT31;56065;52.472;13.380;2022-11-14T01:48:57;7.32;87.56
69009;SHT31;56065;52.472;13.380;2022-11-14T01:54:12;7.34;87.49
69009;SHT31;56065;52.472;13.380;2022-11-14T01:56:47;7.36;87.59
69009;SHT31;56065;52.472;13.380;2022-11-14T01:59:18;7.43;87.84
69009;SHT31;56065;52.472;13.380;2022-11-14T02:01:47;7.51;87.66
69009;SHT31;56065;52.472;13.380;2022-11-14T02:04:17;7.61;87.60
69009;SHT31;56065;52.472;13.380;2022-11-14T02:06:44;7.69;87.35
69009;SHT31;56065;52.472;13.380;2022-11-14T02:09:10;7.67;87.37
69009;SHT31;56065;52.472;13.380;2022-11-14T02:11:38;7.75;87.14
69009;SHT31;56065;52.472;13.380;2022-11-14T02:14:05;7.78;87.19
69009;SHT31;56065;52.472;13.380;2022-11-14T02:16:31;7.82;86.92
69009;SHT31;56065;52.472;13.380;2022-11-14T02:18:57;7.81;86.93
69009;SHT31;56065;52.472;13.380;2022-11-14T02:21:22;7.87;86.80
69009;SHT31;56065;52.472;13.380;2022-11-14T02:23:47;7.82;86.96
69009;SHT31;56065;52.472;13.380;2022-11-14T02:26:19;7.84;86.75
69009;SHT31;56065;52.472;13.380;2022-11-14T02:28:45;7.80;86.92
69009;SHT31;56065;52.472;13.380;2022-11-14T02:31:12;7.80;86.97
69009;SHT31;56065;52.472;13.380;2022-11-14T02:33:37;7.85;86.92
69009;SHT31;56065;52.472;13.380;2022-11-14T02:36:02;7.87;86.88
69009;SHT31;56065;52.472;13.380;2022-11-14T02:38:28;7.85;86.87
69009;SHT31;56065;52.472;13.380;2022-11-14T02:40:53;7.91;86.88
69009;SHT31;56065;52.472;13.380;2022-11-14T02:43:19;7.87;86.86
69009;SHT31;56065;52.472;13.380;2022-11-14T02:45:44;7.90;86.85
69009;SHT31;56065;52.472;13.380;2022-11-14T02:48:09;7.97;86.68
69009;SHT31;56065;52.472;13.380;2022-11-14T02:50:35;7.97;86.62
69009;SHT31;56065;52.472;13.380;2022-11-14T02:53:00;7.95;86.70
69009;SHT31;56065;52.472;13.380;2022-11-14T02:55:25;7.99;86.49
69009;SHT31;56065;52.472;13.380;2022-11-14T02:57:51;7.99;86.45
69009;SHT31;56065;52.472;13.380;2022-11-14T03:00:17;7.97;86.63
69009;SHT31;56065;52.472;13.380;2022-11-14T03:02:42;7.99;86.35
69009;SHT31;56065;52.472;13.380;2022-11-14T03:05:08;7.98;86.37
69009;SHT31;56065;52.472;13.380;2022-11-14T03:07:33;8.01;86.35
69009;SHT31;56065;52.472;13.380;2022-11-14T03:09:59;7.95;86.42
69009;SHT31;56065;52.472;13.380;2022-11-14T03:12:24;7.97;86.37
69009;SHT31;56065;52.472;13.380;2022-11-14T03:14:49;7.95;86.39
69009;SHT31;56065;52.472;13.380;2022-11-14T03:17:15;7.92;86.38
69009;SHT31;56065;52.472;13.380;2022-11-14T03:19:40;7.91;86.44
69009;SHT31;56065;52.472;13.380;2022-11-14T03:22:05;7.90;86.42
69009;SHT31;56065;52.472;13.380;2022-11-14T03:24:31;7.87;86.51
69009;SHT31;56065;52.472;13.380;2022-11-14T03:26:56;7.94;86.37
69009;SHT31;56065;52.472;13.380;2022-11-14T03:29:22;7.88;86.37
69009;SHT31;56065;52.472;13.380;2022-11-14T03:31:47;7.95;86.32
69009;SHT31;56065;52.472;13.380;2022-11-14T03:34:12;7.95;86.15
69009;SHT31;56065;52.472;13.380;2022-11-14T03:36:38;7.98;86.19
69009;SHT31;56065;52.472;13.380;2022-11-14T03:39:04;7.95;86.33
69009;SHT31;56065;52.472;13.380;2022-11-14T03:41:29;7.98;86.16
69009;SHT31;56065;52.472;13.380;2022-11-14T03:43:55;8.01;85.90
69009;SHT31;56065;52.472;13.380;2022-11-14T03:46:20;8.01;85.96
69009;SHT31;56065;52.472;13.380;2022-11-14T03:48:46;7.99;86.04
69009;SHT31;56065;52.472;13.380;2022-11-14T03:51:11;8.04;85.90
69009;SHT31;56065;52.472;13.380;2022-11-14T03:53:37;8.05;85.86
69009;SHT31;56065;52.472;13.380;2022-11-14T03:56:02;8.06;85.65
69009;SHT31;56065;52.472;13.380;2022-11-14T03:58:28;8.02;85.73
69009;SHT31;56065;52.472;13.380;2022-11-14T04:00:53;8.02;85.70
69009;SHT31;56065;52.472;13.380;2022-11-14T04:03:20;7.97;85.87
69009;SHT31;56065;52.472;13.380;2022-11-14T04:05:46;7.92;85.96
69009;SHT31;56065;52.472;13.380;2022-11-14T04:08:11;7.92;85.95
69009;SHT31;56065;52.472;13.380;2022-11-14T04:10:37;7.91;85.91
69009;SHT31;56065;52.472;13.380;2022-11-14T04:13:04;7.87;86.01
69009;SHT31;56065;52.472;13.380;2022-11-14T04:15:29;7.90;85.96
69009;SHT31;56065;52.472;13.380;2022-11-14T04:17:55;7.88;86.02
69009;SHT31;56065;52.472;13.380;2022-11-14T04:20:20;7.88;85.99
69009;SHT31;56065;52.472;13.380;2022-11-14T04:22:46;7.84;86.05
69009;SHT31;56065;52.472;13.380;2022-11-14T04:25:11;7.77;86.22
69009;SHT31;56065;52.472;13.380;2022-11-14T04:27:36;7.82;86.28
69009;SHT31;56065;52.472;13.380;2022-11-14T04:30:03;7.87;86.06
69009;SHT31;56065;52.472;13.380;2022-11-14T04:32:29;7.88;85.82
69009;SHT31;56065;52.472;13.380;2022-11-14T04:34:54;7.88;85.88
69009;SHT31;56065;52.472;13.380;2022-11-14T04:37:19;7.80;85.78
69009;SHT31;56065;52.472;13.380;2022-11-14T04:39:45;7.80;85.90
69009;SHT31;56065;52.472;13.380;2022-11-14T04:42:10;7.70;86.00
69009;SHT31;56065;52.472;13.380;2022-11-14T04:44:35;7.71;86.19
69009;SHT31;56065;52.472;13.380;2022-11-14T04:47:01;7.69;86.13
69009;SHT31;56065;52.472;13.380;2022-11-14T04:49:26;7.67;86.15
69009;SHT31;56065;52.472;13.380;2022-11-14T04:51:51;7.56;86.62
69009;SHT31;56065;52.472;13.380;2022-11-14T04:54:17;7.59;86.46
69009;SHT31;56065;52.472;13.380;2022-11-14T04:56:42;7.57;86.49
69009;SHT31;56065;52.472;13.380;2022-11-14T04:59:07;7.53;86.61
69009;SHT31;56065;52.472;13.380;2022-11-14T05:01:33;7.53;86.66
69009;SHT31;56065;52.472;13.380;2022-11-14T05:03:58;7.60;86.48
69009;SHT31;56065;52.472;13.380;2022-11-14T05:06:23;7.56;86.52
69009;SHT31;56065;52.472;13.380;2022-11-14T05:08:49;7.57;86.54
69009;SHT31;56065;52.472;13.380;2022-11-14T05:11:16;7.56;86.52
69009;SHT31;56065;52.472;13.380;2022-11-14T05:13:42;7.54;86.58
69009;SHT31;56065;52.472;13.380;2022-11-14T05:16:07;7.54;86.64
69009;SHT31;56065;52.472;13.380;2022-11-14T05:18:32;7.54;86.73
69009;SHT31;56065;52.472;13.380;2022-11-14T05:20:59;7.57;86.74
69009;SHT31;56065;52.472;13.380;2022-11-14T05:23:25;7.61;86.70
69009;SHT31;56065;52.472;13.380;2022-11-14T05:26:05;7.57;86.71
69009;SHT31;56065;52.472;13.380;2022-11-14T05:28:31;7.53;86.68
69009;SHT31;56065;52.472;13.380;2022-11-14T05:31:11;7.59;86.61
69009;SHT31;56065;52.472;13.380;2022-11-14T05:33:38;7.61;86.47
69009;SHT31;56065;52.472;13.380;2022-11-14T05:36:08;7.64;86.53
69009;SHT31;56065;52.472;13.380;2022-11-14T05:38:35;7.66;86.50
69009;SHT31;56065;52.472;13.380;2022-11-14T05:41:14;7.69;86.38
69009;SHT31;56065;52.472;13.380;2022-11-14T05:43:40;7.69;86.23
69009;SHT31;56065;52.472;13.380;2022-11-14T05:46:08;7.63;86.33
69009;SHT31;56065;52.472;13.380;2022-11-14T05:48:34;7.56;86.46
69009;SHT31;56065;52.472;13.380;2022-11-14T05:51:02;7.53;86.65
69009;SHT31;56065;52.472;13.380;2022-11-14T05:53:28;7.47;86.66
69009;SHT31;56065;52.472;13.380;2022-11-14T05:55:54;7.49;86.59
69009;SHT31;56065;52.472;13.380;2022-11-14T05:58:23;7.50;86.80
69009;SHT31;56065;52.472;13.380;2022-11-14T06:00:49;7.54;86.63
69009;SHT31;56065;52.472;13.380;2022-11-14T06:03:14;7.56;86.57
69009;SHT31;56065;52.472;13.380;2022-11-14T06:05:40;7.53;86.54
69009;SHT31;56065;52.472;13.380;2022-11-14T06:08:05;7.44;86.74
69009;SHT31;56065;52.472;13.380;2022-11-14T06:10:31;7.40;86.60
69009;SHT31;56065;52.472;13.380;2022-11-14T06:12:58;7.42;86.77
69009;SHT31;56065;52.472;13.380;2022-11-14T06:15:23;7.36;86.79
69009;SHT31;56065;52.472;13.380;2022-11-14T06:17:51;7.36;86.91
69009;SHT31;56065;52.472;13.380;2022-11-14T06:20:17;7.33;86.78
69009;SHT31;56065;52.472;13.380;2022-11-14T06:22:42;7.29;86.96
69009;SHT31;56065;52.472;13.380;2022-11-14T06:25:08;7.16;87.12
69009;SHT31;56065;52.472;13.380;2022-11-14T06:27:34;7.13;87.12
69009;SHT31;56065;52.472;13.380;2022-11-14T06:29:59;7.09;87.28
69009;SHT31;56065;52.472;13.380;2022-11-14T06:32:24;7.12;87.14
69009;SHT31;56065;52.472;13.380;2022-11-14T06:34:50;7.12;87.09
69009;SHT31;56065;52.472;13.380;2022-11-14T06:37:15;7.10;87.13
69009;SHT31;56065;52.472;13.380;2022-11-14T06:39:40;7.05;87.25
69009;SHT31;56065;52.472;13.380;2022-11-14T06:42:06;7.06;87.15
69009;SHT31;56065;52.472;13.380;2022-11-14T06:44:31;7.03;87.22
69009;SHT31;56065;52.472;13.380;2022-11-14T06:46:57;7.09;87.40
69009;SHT31;56065;52.472;13.380;2022-11-14T06:49:22;7.05;87.42
69009;SHT31;56065;52.472;13.380;2022-11-14T06:51:49;7.12;87.50
69009;SHT31;56065;52.472;13.380;2022-11-14T06:54:15;7.13;87.48
69009;SHT31;56065;52.472;13.380;2022-11-14T06:56:40;7.15;87.71
69009;SHT31;56065;52.472;13.380;2022-11-14T06:59:06;7.26;87.21
69009;SHT31;56065;52.472;13.380;2022-11-14T07:01:31;7.32;87.03
69009;SHT31;56065;52.472;13.380;2022-11-14T07:03:56;7.32;86.76
69009;SHT31;56065;52.472;13.380;2022-11-14T07:06:27;7.34;86.76
69009;SHT31;56065;52.472;13.380;2022-11-14T07:08:54;7.32;86.70
69009;SHT31;56065;52.472;13.380;2022-11-14T07:11:22;7.40;86.54
69009;SHT31;56065;52.472;13.380;2022-11-14T07:13:58;7.34;86.50
69009;SHT31;56065;52.472;13.380;2022-11-14T07:16:32;7.49;86.35
69009;SHT31;56065;52.472;13.380;2022-11-14T07:18:59;7.51;86.31
69009;SHT31;56065;52.472;13.380;2022-11-14T07:21:26;7.61;86.21
69009;SHT31;56065;52.472;13.380;2022-11-14T07:23:51;7.67;86.10
69009;SHT31;56065;52.472;13.380;2022-11-14T07:26:17;7.80;86.00
69009;SHT31;56065;52.472;13.380;2022-11-14T07:28:43;8.09;85.57
69009;SHT31;56065;52.472;13.380;2022-11-14T07:31:11;8.46;84.66
69009;SHT31;56065;52.472;13.380;2022-11-14T07:33:38;8.60;83.82
69009;SHT31;56065;52.472;13.380;2022-11-14T07:36:04;8.84;83.71
69009;SHT31;56065;52.472;13.380;2022-11-14T07:38:31;9.28;82.55
69009;SHT31;56065;52.472;13.380;2022-11-14T07:41:01;9.51;81.42
69009;SHT31;56065;52.472;13.380;2022-11-14T07:43:27;9.82;80.83
69009;SHT31;56065;52.472;13.380;2022-11-14T07:45:57;9.96;80.18
69009;SHT31;56065;52.472;13.380;2022-11-14T07:48:22;9.93;79.66
69009;SHT31;56065;52.472;13.380;2022-11-14T07:50:47;10.18;79.45
69009;SHT31;56065;52.472;13.380;2022-11-14T07:53:13;10.20;78.86
69009;SHT31;56065;52.472;13.380;2022-11-14T07:55:39;10.24;78.78
69009;SHT31;56065;52.472;13.380;2022-11-14T07:58:05;10.29;78.66
69009;SHT31;56065;52.472;13.380;2022-11-14T08:00:30;10.29;78.67
69009;SHT31;56065;52.472;13.380;2022-11-14T08:02:56;10.23;78.55
69009;SHT31;56065;52.472;13.380;2022-11-14T08:05:21;10.06;78.47
69009;SHT31;56065;52.472;13.380;2022-11-14T08:07:50;9.94;78.88
69009;SHT31;56065;52.472;13.380;2022-11-14T08:10:16;10.03;79.16
69009;SHT31;56065;52.472;13.380;2022-11-14T08:12:42;10.04;79.26
69009;SHT31;56065;52.472;13.380;2022-11-14T08:15:10;9.94;79.39
69009;SHT31;56065;52.472;13.380;2022-11-14T08:17:36;9.99;79.19
69009;SHT31;56065;52.472;13.380;2022-11-14T08:20:03;10.09;79.17
69009;SHT31;56065;52.472;13.380;2022-11-14T08:22:29;10.23;78.82
69009;SHT31;56065;52.472;13.380;2022-11-14T08:24:55;10.41;78.30
69009;SHT31;56065;52.472;13.380;2022-11-14T08:27:21;10.54;77.90
69009;SHT31;56065;52.472;13.380;2022-11-14T08:29:46;10.72;77.25
69009;SHT31;56065;52.472;13.380;2022-11-14T08:32:11;10.58;77.34
69009;SHT31;56065;52.472;13.380;2022-11-14T08:34:37;10.48;78.34
69009;SHT31;56065;52.472;13.380;2022-11-14T08:37:02;10.53;78.54
69009;SHT31;56065;52.472;13.380;2022-11-14T08:39:28;10.76;78.01
69009;SHT31;56065;52.472;13.380;2022-11-14T08:41:56;11.15;77.12
69009;SHT31;56065;52.472;13.380;2022-11-14T08:44:21;11.44;76.08
69009;SHT31;56065;52.472;13.380;2022-11-14T08:46:46;11.63;75.14
69009;SHT31;56065;52.472;13.380;2022-11-14T08:49:12;11.87;74.34
69009;SHT31;56065;52.472;13.380;2022-11-14T08:51:37;11.75;74.62
69009;SHT31;56065;52.472;13.380;2022-11-14T08:54:02;11.77;74.17
69009;SHT31;56065;52.472;13.380;2022-11-14T08:56:28;11.54;74.02
69009;SHT31;56065;52.472;13.380;2022-11-14T08:58:53;11.70;74.76
69009;SHT31;56065;52.472;13.380;2022-11-14T09:01:18;12.25;73.16
69009;SHT31;56065;52.472;13.380;2022-11-14T09:03:44;12.38;72.43
69009;SHT31;56065;52.472;13.380;2022-11-14T09:06:09;12.55;71.87
69009;SHT31;56065;52.472;13.380;2022-11-14T09:08:35;12.59;71.42
69009;SHT31;56065;52.472;13.380;2022-11-14T09:11:01;12.75;71.52
69009;SHT31;56065;52.472;13.380;2022-11-14T09:13:27;13.00;71.59
69009;SHT31;56065;52.472;13.380;2022-11-14T09:15:53;14.01;68.26
69009;SHT31;56065;52.472;13.380;2022-11-14T09:18:18;14.88;66.36
69009;SHT31;56065;52.472;13.380;2022-11-14T09:20:44;15.60;65.23
69009;SHT31;56065;52.472;13.380;2022-11-14T09:23:09;16.25;62.78
69009;SHT31;56065;52.472;13.380;2022-11-14T09:25:35;16.66;61.05
69009;SHT31;56065;52.472;13.380;2022-11-14T09:28:05;16.83;60.14
69009;SHT31;56065;52.472;13.380;2022-11-14T09:30:32;16.96;59.77
69009;SHT31;56065;52.472;13.380;2022-11-14T09:32:59;17.45;58.26
69009;SHT31;56065;52.472;13.380;2022-11-14T09:35:25;17.58;57.67
69009;SHT31;56065;52.472;13.380;2022-11-14T09:37:58;16.85;58.29
69009;SHT31;56065;52.472;13.380;2022-11-14T09:40:23;16.68;58.69
69009;SHT31;56065;52.472;13.380;2022-11-14T09:45:26;16.72;59.40
69009;SHT31;56065;52.472;13.380;2022-11-14T09:47:57;16.97;58.61
69009;SHT31;56065;52.472;13.380;2022-11-14T09:50:29;17.20;58.77
69009;SHT31;56065;52.472;13.380;2022-11-14T09:53:02;17.61;57.37
69009;SHT31;56065;52.472;13.380;2022-11-14T09:55:31;17.89;57.40
69009;SHT31;56065;52.472;13.380;2022-11-14T09:57:57;18.19;55.85
69009;SHT31;56065;52.472;13.380;2022-11-14T10:00:25;18.46;55.79
69009;SHT31;56065;52.472;13.380;2022-11-14T10:03:19;18.84;55.45
69009;SHT31;56065;52.472;13.380;2022-11-14T10:06:12;18.57;54.87
69009;SHT31;56065;52.472;13.380;2022-11-14T10:08:48;18.61;56.66
69009;SHT31;56065;52.472;13.380;2022-11-14T10:11:39;19.00;54.90
69009;SHT31;56065;52.472;13.380;2022-11-14T10:22:48;18.08;57.14
69009;SHT31;56065;52.472;13.380;2022-11-14T10:25:27;18.21;56.31
69009;SHT31;56065;52.472;13.380;2022-11-14T10:31:22;17.78;57.13
69009;SHT31;56065;52.472;13.380;2022-11-14T10:39:38;15.62;60.28
69009;SHT31;56065;52.472;13.380;2022-11-14T10:42:13;15.28;62.10
69009;SHT31;56065;52.472;13.380;2022-11-14T10:44:50;15.47;62.61
69009;SHT31;56065;52.472;13.380;2022-11-14T10:47:20;15.66;61.23
69009;SHT31;56065;52.472;13.380;2022-11-14T10:49:47;15.89;61.85
69009;SHT31;56065;52.472;13.380;2022-11-14T10:52:18;16.15;61.12
69009;SHT31;56065;52.472;13.380;2022-11-14T10:54:45;16.28;59.80
69009;SHT31;56065;52.472;13.380;2022-11-14T10:57:20;16.14;60.10
69009;SHT31;56065;52.472;13.380;2022-11-14T10:59:45;15.98;60.46
69009;SHT31;56065;52.472;13.380;2022-11-14T11:02:11;16.18;61.08
69009;SHT31;56065;52.472;13.380;2022-11-14T11:04:38;16.79;59.25
69009;SHT31;56065;52.472;13.380;2022-11-14T11:09:37;17.77;56.89
69009;SHT31;56065;52.472;13.380;2022-11-14T11:12:42;18.33;55.98
69009;SHT31;56065;52.472;13.380;2022-11-14T11:15:24;18.56;55.25
69009;SHT31;56065;52.472;13.380;2022-11-14T11:18:02;18.95;54.52
69009;SHT31;56065;52.472;13.380;2022-11-14T11:20:40;19.22;53.85
69009;SHT31;56065;52.472;13.380;2022-11-14T11:25:33;20.01;53.17
69009;SHT31;56065;52.472;13.380;2022-11-14T11:28:14;20.17;52.59
69009;SHT31;56065;52.472;13.380;2022-11-14T11:31:00;20.13;51.84
69009;SHT31;56065;52.472;13.380;2022-11-14T11:33:34;20.94;51.37
69009;SHT31;56065;52.472;13.380;2022-11-14T11:36:02;21.83;50.78
69009;SHT31;56065;52.472;13.380;2022-11-14T11:38:30;22.18;48.02
69009;SHT31;56065;52.472;13.380;2022-11-14T11:41:08;21.97;48.37
69009;SHT31;56065;52.472;13.380;2022-11-14T11:46:18;20.85;49.72
69009;SHT31;56065;52.472;13.380;2022-11-14T11:48:48;20.51;50.56
69009;SHT31;56065;52.472;13.380;2022-11-14T11:51:18;20.03;51.44
69009;SHT31;56065;52.472;13.380;2022-11-14T11:56:25;20.57;50.79
69009;SHT31;56065;52.472;13.380;2022-11-14T11:58:58;20.69;51.16
69009;SHT31;56065;52.472;13.380;2022-11-14T12:01:26;20.94;49.54
69009;SHT31;56065;52.472;13.380;2022-11-14T12:03:53;21.03;50.04
69009;SHT31;56065;52.472;13.380;2022-11-14T12:06:23;21.27;50.73
69009;SHT31;56065;52.472;13.380;2022-11-14T12:11:31;21.15;50.42
69009;SHT31;56065;52.472;13.380;2022-11-14T12:30:34;17.99;55.08
69009;SHT31;56065;52.472;13.380;2022-11-14T12:33:28;17.61;56.08
69009;SHT31;56065;52.472;13.380;2022-11-14T12:35:58;16.92;57.69
69009;SHT31;56065;52.472;13.380;2022-11-14T12:38:45;16.36;58.91
69009;SHT31;56065;52.472;13.380;2022-11-14T12:41:22;16.11;59.94
69009;SHT31;56065;52.472;13.380;2022-11-14T12:43:48;15.74;60.85
69009;SHT31;56065;52.472;13.380;2022-11-14T12:46:14;15.53;61.10
69009;SHT31;56065;52.472;13.380;2022-11-14T12:48:46;15.67;61.10
69009;SHT31;56065;52.472;13.380;2022-11-14T12:54:45;14.91;62.55
69009;SHT31;56065;52.472;13.380;2022-11-14T12:57:19;14.91;63.36
69009;SHT31;56065;52.472;13.380;2022-11-14T13:00:07;14.88;63.15
69009;SHT31;56065;52.472;13.380;2022-11-14T13:02:55;14.89;63.32
69009;SHT31;56065;52.472;13.380;2022-11-14T13:05:44;14.68;63.94
69009;SHT31;56065;52.472;13.380;2022-11-14T13:10:57;14.47;64.66
69009;SHT31;56065;52.472;13.380;2022-11-14T13:13:23;14.63;64.36
69009;SHT31;56065;52.472;13.380;2022-11-14T13:16:22;14.54;64.30
69009;SHT31;56065;52.472;13.380;2022-11-14T13:27:33;14.37;65.66
69009;SHT31;56065;52.472;13.380;2022-11-14T13:29:59;14.48;65.22
69009;SHT31;56065;52.472;13.380;2022-11-14T13:51:32;14.56;65.05
69009;SHT31;56065;52.472;13.380;2022-11-14T13:53:58;14.43;65.57
69009;SHT31;56065;52.472;13.380;2022-11-14T13:56:33;14.30;66.05
69009;SHT31;56065;52.472;13.380;2022-11-14T13:59:18;14.34;65.72
69009;SHT31;56065;52.472;13.380;2022-11-14T14:01:49;14.16;66.32
69009;SHT31;56065;52.472;13.380;2022-11-14T14:04:19;14.22;66.05
69009;SHT31;56065;52.472;13.380;2022-11-14T14:07:11;14.15;66.25
69009;SHT31;56065;52.472;13.380;2022-11-14T14:09:56;13.99;66.73
69009;SHT31;56065;52.472;13.380;2022-11-14T14:20:44;13.85;67.59
69009;SHT31;56065;52.472;13.380;2022-11-14T14:23:34;13.82;67.36
69009;SHT31;56065;52.472;13.380;2022-11-14T14:31:20;13.44;68.59
69009;SHT31;56065;52.472;13.380;2022-11-14T14:33:50;13.33;68.87
69009;SHT31;56065;52.472;13.380;2022-11-14T14:38:41;13.18;69.51
69009;SHT31;56065;52.472;13.380;2022-11-14T14:41:07;13.11;69.66
69009;SHT31;56065;52.472;13.380;2022-11-14T14:43:34;12.99;69.93
69009;SHT31;56065;52.472;13.380;2022-11-14T14:45:59;12.89;70.27
69009;SHT31;56065;52.472;13.380;2022-11-14T14:48:32;12.77;70.67
69009;SHT31;56065;52.472;13.380;2022-11-14T14:50:59;12.66;71.00
69009;SHT31;56065;52.472;13.380;2022-11-14T14:53:29;12.56;71.42
69009;SHT31;56065;52.472;13.380;2022-11-14T14:56:04;12.45;71.66
69009;SHT31;56065;52.472;13.380;2022-11-14T14:58:31;12.36;71.75
69009;SHT31;56065;52.472;13.380;2022-11-14T15:01:14;12.22;72.27
69009;SHT31;56065;52.472;13.380;2022-11-14T15:03:50;12.11;72.89
69009;SHT31;56065;52.472;13.380;2022-11-14T15:08:57;11.90;73.22
69009;SHT31;56065;52.472;13.380;2022-11-14T15:11:25;11.81;73.58
69009;SHT31;56065;52.472;13.380;2022-11-14T15:13:53;11.80;73.49
69009;SHT31;56065;52.472;13.380;2022-11-14T15:16:19;11.69;73.83
69009;SHT31;56065;52.472;13.380;2022-11-14T15:18:46;11.64;74.18
69009;SHT31;56065;52.472;13.380;2022-11-14T15:23:38;11.53;74.49
69009;SHT31;56065;52.472;13.380;2022-11-14T15:26:10;11.46;74.65
69009;SHT31;56065;52.472;13.380;2022-11-14T15:28:36;11.36;75.03
69009;SHT31;56065;52.472;13.380;2022-11-14T15:31:03;11.32;75.16
69009;SHT31;56065;52.472;13.380;2022-11-14T15:33:30;11.25;75.46
69009;SHT31;56065;52.472;13.380;2022-11-14T15:36:07;11.19;75.51
69009;SHT31;56065;52.472;13.380;2022-11-14T15:38:34;11.15;75.85
69009;SHT31;56065;52.472;13.380;2022-11-14T15:41:21;11.09;76.01
69009;SHT31;56065;52.472;13.380;2022-11-14T15:43:51;11.03;76.20
69009;SHT31;56065;52.472;13.380;2022-11-14T15:49:18;10.84;76.63
69009;SHT31;56065;52.472;13.380;2022-11-14T15:51:50;10.78;77.10
69009;SHT31;56065;52.472;13.380;2022-11-14T15:54:42;10.72;77.23
69009;SHT31;56065;52.472;13.380;2022-11-14T15:57:14;10.64;77.43
69009;SHT31;56065;52.472;13.380;2022-11-14T15:59:41;10.65;77.48
69009;SHT31;56065;52.472;13.380;2022-11-14T16:02:28;10.61;77.77
69009;SHT31;56065;52.472;13.380;2022-11-14T16:04:54;10.57;77.89
69009;SHT31;56065;52.472;13.380;2022-11-14T16:07:21;10.55;77.81
69009;SHT31;56065;52.472;13.380;2022-11-14T16:09:47;10.51;78.01
69009;SHT31;56065;52.472;13.380;2022-11-14T16:12:12;10.43;77.75
69009;SHT31;56065;52.472;13.380;2022-11-14T16:14:38;10.38;77.93
69009;SHT31;56065;52.472;13.380;2022-11-14T16:17:04;10.36;78.03
69009;SHT31;56065;52.472;13.380;2022-11-14T16:19:29;10.25;78.31
69009;SHT31;56065;52.472;13.380;2022-11-14T16:21:59;10.20;78.11
69009;SHT31;56065;52.472;13.380;2022-11-14T16:24:27;10.07;78.33
69009;SHT31;56065;52.472;13.380;2022-11-14T16:26:54;9.99;78.45
69009;SHT31;56065;52.472;13.380;2022-11-14T16:29:22;9.92;78.66
69009;SHT31;56065;52.472;13.380;2022-11-14T16:31:47;9.87;78.55
69009;SHT31;56065;52.472;13.380;2022-11-14T16:34:18;9.86;78.79
69009;SHT31;56065;52.472;13.380;2022-11-14T16:36:44;9.83;79.11
69009;SHT31;56065;52.472;13.380;2022-11-14T16:39:10;9.79;79.80
69009;SHT31;56065;52.472;13.380;2022-11-14T16:41:37;9.78;79.76
69009;SHT31;56065;52.472;13.380;2022-11-14T16:44:03;9.79;79.80
69009;SHT31;56065;52.472;13.380;2022-11-14T16:46:28;9.76;80.01
69009;SHT31;56065;52.472;13.380;2022-11-14T16:48:54;9.73;80.37
69009;SHT31;56065;52.472;13.380;2022-11-14T16:51:19;9.73;80.48
69009;SHT31;56065;52.472;13.380;2022-11-14T16:53:44;9.72;80.53
69009;SHT31;56065;52.472;13.380;2022-11-14T16:56:10;9.73;80.67
69009;SHT31;56065;52.472;13.380;2022-11-14T16:58:37;9.71;80.50
69009;SHT31;56065;52.472;13.380;2022-11-14T17:01:05;9.68;80.54
69009;SHT31;56065;52.472;13.380;2022-11-14T17:03:31;9.59;80.35
69009;SHT31;56065;52.472;13.380;2022-11-14T17:05:56;9.56;80.33
69009;SHT31;56065;52.472;13.380;2022-11-14T17:08:21;9.49;80.51
69009;SHT31;56065;52.472;13.380;2022-11-14T17:10:47;9.46;80.58
69009;SHT31;56065;52.472;13.380;2022-11-14T17:13:13;9.41;80.80
69009;SHT31;56065;52.472;13.380;2022-11-14T17:15:38;9.36;81.21
69009;SHT31;56065;52.472;13.380;2022-11-14T17:18:05;9.38;81.32
69009;SHT31;56065;52.472;13.380;2022-11-14T17:20:30;9.34;81.37
69009;SHT31;56065;52.472;13.380;2022-11-14T17:22:56;9.28;81.14